Time;durP1;ratioP1;P1;durP2;ratioP2;P2;SDS_P1;SDS_P2;PMS_P1;PMS_P2;Temp;Humidity;BMP_temperature;BMP_pressure;BME280_temperature;BME280_humidity;BME280_pressure;Samples;Min_cycle;Max_cycle;Signal;HPM_P1;HPM_P2
2022/08/01 00:00:41;;;;;;;6.35;4.22;;;20.90;99.90;;;;;;5047022;28;20052;-62
2022/08/01 00:03:06;;;;;;;6.90;4.32;;;20.90;99.90;;;;;;5045311;28;20049;-62
2022/08/01 00:05:32;;;;;;;6.50;5.07;;;20.90;99.90;;;;;;5043237;28;20104;-62
2022/08/01 00:07:58;;;;;;;5.10;4.15;;;20.90;99.90;;;;;;5047950;28;20017;-62
2022/08/01 00:10:24;;;;;;;5.53;4.47;;;20.80;99.90;;;;;;5046270;28;20021;-61
2022/08/01 00:12:49;;;;;;;5.18;4.07;;;20.80;99.90;;;;;;5048032;28;20025;-62
2022/08/01 00:15:16;;;;;;;5.28;3.97;;;20.80;99.90;;;;;;5049216;28;20079;-61
2022/08/01 00:17:42;;;;;;;6.03;3.50;;;20.80;99.90;;;;;;5046864;28;20134;-62
2022/08/01 00:20:11;;;;;;;4.85;3.70;;;20.80;99.90;;;;;;5047189;28;20025;-62
2022/08/01 00:22:37;;;;;;;5.07;3.87;;;20.70;99.90;;;;;;5045304;28;20017;-62
2022/08/01 00:25:04;;;;;;;5.93;4.53;;;20.70;99.90;;;;;;5046496;28;20036;-62
2022/08/01 00:27:30;;;;;;;5.35;4.40;;;20.70;99.90;;;;;;5018928;28;20487;-62
2022/08/01 00:29:55;;;;;;;5.70;4.25;;;20.70;99.90;;;;;;5014078;28;20029;-62
2022/08/01 00:32:21;;;;;;;5.32;4.13;;;20.70;99.90;;;;;;5017774;28;20057;-61
2022/08/01 00:34:47;;;;;;;5.10;3.13;;;20.70;99.90;;;;;;5047447;28;20691;-62
2022/08/01 00:37:13;;;;;;;5.07;3.95;;;20.70;99.90;;;;;;5047847;28;20056;-61
2022/08/01 00:39:38;;;;;;;6.63;3.65;;;20.70;99.90;;;;;;5046824;28;20536;-61
2022/08/01 00:42:08;;;;;;;5.38;3.83;;;20.70;99.90;;;;;;5045516;28;20044;-62
2022/08/01 00:44:33;;;;;;;;;;;20.70;99.90;;;;;;5048363;28;20433;-62
2022/08/01 00:46:59;;;;;;;6.45;4.32;;;20.60;99.90;;;;;;5047193;28;19955;-61
2022/08/01 00:49:25;;;;;;;6.35;4.78;;;20.50;99.90;;;;;;5046364;28;20028;-61
2022/08/01 00:51:51;;;;;;;5.43;4.40;;;20.50;99.90;;;;;;5045388;28;20430;-61
2022/08/01 00:54:16;;;;;;;7.13;5.53;;;20.50;99.90;;;;;;5013713;28;20519;-61
2022/08/01 00:56:42;;;;;;;8.85;5.22;;;20.50;99.90;;;;;;5046842;28;20649;-61
2022/08/01 00:59:10;;;;;;;5.57;4.45;;;20.50;99.90;;;;;;5015441;28;20575;-62
2022/08/01 01:01:36;;;;;;;5.95;4.82;;;20.50;99.90;;;;;;5046385;28;20530;-61
2022/08/01 01:04:02;;;;;;;7.05;4.55;;;20.50;99.90;;;;;;5047226;28;20041;-62
2022/08/01 01:06:44;;;;;;;6.45;5.13;;;20.50;99.90;;;;;;5047163;28;20029;-62
2022/08/01 01:09:33;;;;;;;5.70;4.80;;;20.50;99.90;;;;;;5047704;28;20021;-61
2022/08/01 01:12:02;;;;;;;9.45;4.13;;;20.50;99.90;;;;;;5047810;28;20017;-62
2022/08/01 01:14:38;;;;;;;5.60;4.88;;;20.40;99.90;;;;;;5043702;28;20079;-61
2022/08/01 01:17:07;;;;;;;5.65;4.55;;;20.40;99.90;;;;;;5046733;28;20025;-62
2022/08/01 01:19:38;;;;;;;5.33;4.30;;;20.40;99.90;;;;;;5046621;28;20056;-62
2022/08/01 01:22:24;;;;;;;5.85;4.20;;;20.40;99.90;;;;;;5045976;28;20025;-62
2022/08/01 01:25:21;;;;;;;5.15;4.20;;;20.40;99.90;;;;;;5046165;28;20043;-61
2022/08/01 01:28:20;;;;;;;7.88;4.93;;;20.40;99.90;;;;;;5049097;28;20036;-62
2022/08/01 01:30:50;;;;;;;5.25;3.92;;;20.40;99.90;;;;;;5047912;28;20132;-62
2022/08/01 01:33:17;;;;;;;8.93;4.72;;;20.30;99.90;;;;;;5049940;28;20485;-62
2022/08/01 01:35:48;;;;;;;5.72;4.03;;;20.30;99.90;;;;;;5021385;28;20025;-62
2022/08/01 01:38:20;;;;;;;5.97;4.22;;;20.30;99.90;;;;;;5049421;28;20070;-63
2022/08/01 01:40:48;;;;;;;5.30;4.00;;;20.30;99.90;;;;;;5049613;28;20028;-63
2022/08/01 01:43:15;;;;;;;4.50;3.58;;;20.30;99.90;;;;;;5049376;28;20025;-63
2022/08/01 01:45:42;;;;;;;6.88;4.25;;;20.30;99.90;;;;;;5048986;28;20021;-63
2022/08/01 01:48:09;;;;;;;4.60;3.67;;;20.30;99.90;;;;;;5050776;28;20112;-63
2022/08/01 01:50:37;;;;;;;5.80;4.30;;;20.30;99.90;;;;;;5048852;28;20460;-62
2022/08/01 01:53:05;;;;;;;6.28;4.53;;;20.30;99.90;;;;;;5049306;28;20028;-63
2022/08/01 01:55:32;;;;;;;4.70;3.92;;;20.30;99.90;;;;;;5045500;28;20144;-62
2022/08/01 01:57:59;;;;;;;5.72;4.60;;;20.30;99.90;;;;;;5050548;28;20051;-62
2022/08/01 02:00:25;;;;;;;5.05;4.20;;;20.30;99.90;;;;;;5023960;28;20027;-63
2022/08/01 02:02:53;;;;;;;6.13;4.45;;;20.30;99.90;;;;;;5048329;28;20052;-63
2022/08/01 02:05:21;;;;;;;6.47;4.82;;;20.30;99.90;;;;;;5048629;28;20376;-63
2022/08/01 02:07:48;;;;;;;6.43;4.53;;;20.30;99.90;;;;;;5030704;28;20037;-62
2022/08/01 02:10:17;;;;;;;5.82;4.40;;;20.20;99.90;;;;;;5046373;28;20060;-63
2022/08/01 02:12:45;;;;;;;8.20;4.85;;;20.20;99.90;;;;;;5048215;28;20370;-63
2022/08/01 02:15:12;;;;;;;7.10;4.72;;;20.20;99.90;;;;;;5045656;28;20021;-62
2022/08/01 02:17:43;;;;;;;5.90;4.47;;;20.20;99.90;;;;;;5050146;28;20028;-63
2022/08/01 02:20:09;;;;;;;5.32;4.35;;;20.20;99.90;;;;;;5049633;28;20040;-62
2022/08/01 02:22:53;;;;;;;5.68;4.47;;;20.20;99.90;;;;;;5018786;28;20555;-63
2022/08/01 02:25:33;;;;;;;6.90;5.05;;;20.20;99.90;;;;;;5049393;28;20051;-63
2022/08/01 02:28:10;;;;;;;5.20;3.95;;;20.20;99.90;;;;;;5049433;28;20533;-63
2022/08/01 02:30:38;;;;;;;6.13;5.10;;;20.10;99.90;;;;;;5046806;28;20021;-63
2022/08/01 02:33:20;;;;;;;6.53;4.40;;;20.10;99.90;;;;;;5047768;28;20103;-63
2022/08/01 02:35:52;;;;;;;4.90;3.50;;;20.10;99.90;;;;;;5049574;28;20027;-62
2022/08/01 02:38:22;;;;;;;6.43;4.43;;;20.10;99.90;;;;;;5045200;28;20112;-63
2022/08/01 02:40:49;;;;;;;6.63;4.18;;;20.10;99.90;;;;;;5048104;28;20086;-62
2022/08/01 02:43:20;;;;;;;5.57;4.00;;;20.00;99.90;;;;;;5045233;28;20036;-62
2022/08/01 02:45:49;;;;;;;6.72;3.97;;;20.00;99.90;;;;;;5047453;28;20021;-63
2022/08/01 02:48:18;;;;;;;7.43;4.80;;;20.00;99.90;;;;;;5030572;28;20028;-62
2022/08/01 02:50:47;;;;;;;6.60;4.55;;;20.00;99.90;;;;;;5048517;28;20025;-63
2022/08/01 02:53:14;;;;;;;7.03;4.82;;;19.90;99.90;;;;;;5045353;28;20060;-62
2022/08/01 02:55:42;;;;;;;5.00;4.05;;;19.90;99.90;;;;;;5049505;28;20146;-63
2022/08/01 02:58:10;;;;;;;5.53;4.70;;;19.90;99.90;;;;;;5048066;28;20063;-62
2022/08/01 03:00:36;;;;;;;6.75;4.38;;;19.90;99.90;;;;;;5031447;28;20078;-63
2022/08/01 03:03:04;;;;;;;8.48;4.82;;;19.90;99.90;;;;;;5047221;28;20045;-63
2022/08/01 03:05:32;;;;;;;7.05;4.43;;;19.80;99.90;;;;;;5045983;28;20025;-63
2022/08/01 03:08:00;;;;;;;8.20;5.05;;;19.80;99.90;;;;;;5048948;28;20036;-62
2022/08/01 03:10:28;;;;;;;5.65;4.57;;;19.80;99.90;;;;;;5046168;28;20540;-62
2022/08/01 03:12:57;;;;;;;6.80;4.70;;;19.80;99.90;;;;;;5017581;28;20116;-62
2022/08/01 03:15:24;;;;;;;5.63;4.13;;;19.70;99.90;;;;;;5047793;28;20031;-62
2022/08/01 03:17:52;;;;;;;6.30;4.75;;;19.70;99.90;;;;;;5047660;28;20552;-62
2022/08/01 03:20:20;;;;;;;6.60;4.40;;;19.70;99.90;;;;;;5047727;28;20029;-62
2022/08/01 03:22:48;;;;;;;6.75;4.72;;;19.70;99.90;;;;;;5049216;28;20452;-62
2022/08/01 03:25:16;;;;;;;8.18;5.05;;;19.70;99.90;;;;;;5042263;28;20025;-62
2022/08/01 03:27:43;;;;;;;6.78;4.60;;;19.60;99.90;;;;;;5047684;28;20382;-62
2022/08/01 03:30:30;;;;;;;8.23;4.97;;;19.60;99.90;;;;;;5046167;28;21116;-62
2022/08/01 03:32:56;;;;;;;7.57;4.68;;;19.60;99.90;;;;;;5046789;28;20051;-62
2022/08/01 03:35:25;;;;;;;6.72;5.10;;;19.60;99.90;;;;;;5045926;28;20025;-62
2022/08/01 03:37:54;;;;;;;6.53;5.15;;;19.60;99.90;;;;;;5045936;28;20399;-62
2022/08/01 03:40:35;;;;;;;7.35;5.07;;;19.50;99.90;;;;;;5046613;28;20021;-62
2022/08/01 03:43:07;;;;;;;7.32;4.70;;;19.50;99.90;;;;;;5046377;28;20124;-62
2022/08/01 03:45:37;;;;;;;7.70;4.72;;;19.50;99.90;;;;;;5046767;28;20441;-62
2022/08/01 03:48:08;;;;;;;7.78;5.20;;;19.50;99.90;;;;;;5042122;28;20037;-62
2022/08/01 03:50:37;;;;;;;6.82;4.78;;;19.50;99.90;;;;;;5045483;28;20024;-64
2022/08/01 03:53:06;;;;;;;7.30;4.95;;;19.40;99.90;;;;;;5047446;28;20031;-62
2022/08/01 03:55:33;;;;;;;7.75;5.03;;;19.40;99.90;;;;;;5047034;28;20021;-62
2022/08/01 03:58:01;;;;;;;6.43;4.93;;;19.40;99.90;;;;;;5044924;28;20035;-62
2022/08/01 04:00:27;;;;;;;7.38;4.80;;;19.40;99.90;;;;;;5047984;28;20024;-62
2022/08/01 04:02:53;;;;;;;8.05;5.22;;;19.30;99.90;;;;;;5047079;28;20451;-62
2022/08/01 04:05:19;;;;;;;6.65;4.78;;;19.30;99.90;;;;;;5046623;28;20849;-62
2022/08/01 04:07:55;;;;;;;7.25;5.10;;;19.30;99.90;;;;;;5048445;28;20035;-62
2022/08/01 04:10:22;;;;;;;7.70;5.20;;;19.30;99.90;;;;;;5019771;28;20039;-62
2022/08/01 04:12:48;;;;;;;8.80;5.40;;;19.30;99.90;;;;;;5048382;28;20032;-62
2022/08/01 04:15:14;;;;;;;6.63;4.65;;;19.30;99.90;;;;;;5027937;28;20405;-62
2022/08/01 04:17:39;;;;;;;8.30;5.28;;;19.30;99.90;;;;;;5047798;28;20033;-62
2022/08/01 04:20:05;;;;;;;7.35;4.55;;;19.30;99.90;;;;;;5045854;28;20127;-62
2022/08/01 04:22:31;;;;;;;7.15;4.68;;;19.30;99.90;;;;;;5047822;28;20020;-62
2022/08/01 04:24:59;;;;;;;6.50;4.28;;;19.30;99.90;;;;;;5048425;28;20025;-62
2022/08/01 04:27:32;;;;;;;7.88;4.95;;;19.30;99.90;;;;;;5044791;28;20499;-62
2022/08/01 04:29:59;;;;;;;8.23;5.15;;;19.30;99.90;;;;;;5045113;28;20025;-62
2022/08/01 04:32:30;;;;;;;8.63;5.57;;;19.30;99.90;;;;;;5044145;28;20437;-62
2022/08/01 04:34:59;;;;;;;6.82;5.25;;;19.30;99.90;;;;;;5046164;28;20029;-62
2022/08/01 04:37:25;;;;;;;10.05;5.25;;;19.30;99.90;;;;;;5046635;28;20021;-62
2022/08/01 04:39:54;;;;;;;8.63;5.10;;;19.30;99.90;;;;;;5043469;28;20145;-61
2022/08/01 04:42:19;;;;;;;9.00;5.88;;;19.30;99.90;;;;;;5047350;28;20480;-61
2022/08/01 04:44:45;;;;;;;8.07;5.07;;;19.30;99.90;;;;;;5045788;28;20125;-61
2022/08/01 04:47:12;;;;;;;9.18;5.40;;;19.30;99.90;;;;;;5046491;28;20040;-61
2022/08/01 04:49:38;;;;;;;8.73;6.20;;;19.30;99.90;;;;;;5045781;28;20021;-62
2022/08/01 04:52:05;;;;;;;9.65;6.30;;;19.30;99.90;;;;;;5048061;28;20025;-61
2022/08/01 04:54:54;;;;;;;8.52;5.10;;;19.30;99.90;;;;;;5045067;28;20100;-61
2022/08/01 04:57:20;;;;;;;10.37;6.33;;;19.30;99.90;;;;;;5045802;28;20059;-62
2022/08/01 04:59:46;;;;;;;11.15;6.25;;;19.30;99.90;;;;;;5048050;28;20052;-61
2022/08/01 05:02:16;;;;;;;7.25;5.07;;;19.30;99.90;;;;;;5048844;28;20033;-61
2022/08/01 05:04:42;;;;;;;7.93;5.35;;;19.40;99.90;;;;;;5052065;28;20108;-61
2022/08/01 05:07:09;;;;;;;7.32;4.53;;;19.40;99.90;;;;;;5051300;28;20569;-61
2022/08/01 05:09:38;;;;;;;6.93;4.63;;;19.40;99.90;;;;;;5048901;28;20049;-61
2022/08/01 05:12:05;;;;;;;7.93;5.50;;;19.40;99.90;;;;;;5050900;28;20366;-62
2022/08/01 05:14:31;;;;;;;8.85;5.43;;;19.40;99.90;;;;;;5051186;28;20028;-61
2022/08/01 05:16:59;;;;;;;5.75;4.70;;;19.50;99.90;;;;;;5050943;28;20087;-62
2022/08/01 05:19:24;;;;;;;6.05;4.80;;;19.50;99.90;;;;;;5050438;28;20020;-62
2022/08/01 05:21:50;;;;;;;6.53;4.63;;;19.50;99.90;;;;;;5050271;28;20082;-62
2022/08/01 05:24:15;;;;;;;6.18;4.75;;;19.50;99.90;;;;;;5050361;28;20018;-61
2022/08/01 05:27:27;;;;;;;6.68;4.40;;;19.50;99.90;;;;;;5047645;28;20086;-61
2022/08/01 05:29:52;;;;;;;5.47;4.15;;;19.60;99.90;;;;;;5048284;28;20017;-61
2022/08/01 05:32:18;;;;;;;5.28;4.15;;;19.60;99.90;;;;;;5050585;28;20033;-61
2022/08/01 05:34:43;;;;;;;5.43;4.45;;;19.60;99.90;;;;;;5048629;28;20070;-62
2022/08/01 05:37:10;;;;;;;6.43;4.82;;;19.70;99.90;;;;;;5049123;28;20028;-62
2022/08/01 05:39:36;;;;;;;5.82;4.78;;;19.70;99.90;;;;;;5048360;28;20550;-62
2022/08/01 05:42:01;;;;;;;6.22;4.57;;;19.80;99.90;;;;;;5049547;28;20033;-61
2022/08/01 05:44:52;;;;;;;6.80;4.93;;;19.80;99.90;;;;;;5047810;28;20052;-61
2022/08/01 05:47:18;;;;;;;5.70;5.00;;;19.90;99.90;;;;;;5021812;28;20033;-62
2022/08/01 05:52:40;;;;;;;8.02;5.60;;;20.00;99.90;;;;;;5042803;28;20106;-61
2022/08/01 05:55:06;;;;;;;7.80;5.65;;;20.00;99.90;;;;;;5046971;28;20469;-61
2022/08/01 05:57:32;;;;;;;8.38;6.32;;;20.00;99.90;;;;;;5048432;28;20029;-61
2022/08/01 05:59:57;;;;;;;9.65;6.20;;;20.00;99.90;;;;;;5050509;28;20091;-62
2022/08/01 06:02:23;;;;;;;7.25;5.63;;;20.00;99.90;;;;;;5048934;28;20102;-61
2022/08/01 06:04:48;;;;;;;6.78;5.55;;;20.00;99.90;;;;;;5046503;28;20028;-62
2022/08/01 06:07:14;;;;;;;7.28;5.75;;;20.10;99.90;;;;;;5049165;28;20538;-62
2022/08/01 06:09:39;;;;;;;8.25;5.88;;;20.10;99.90;;;;;;5047830;28;20446;-62
2022/08/01 06:12:05;;;;;;;8.50;6.93;;;20.10;99.90;;;;;;5048573;28;20033;-61
2022/08/01 06:14:30;;;;;;;9.18;6.50;;;20.20;99.90;;;;;;5046566;28;20439;-62
2022/08/01 06:16:56;;;;;;;8.13;7.18;;;20.20;99.90;;;;;;5045317;28;20033;-61
2022/08/01 06:19:21;;;;;;;6.60;5.95;;;20.30;99.90;;;;;;5048372;28;20025;-61
2022/08/01 06:21:47;;;;;;;7.00;5.85;;;20.30;99.90;;;;;;5045870;28;20052;-62
2022/08/01 06:24:12;;;;;;;8.52;6.30;;;20.30;99.90;;;;;;5054005;28;20055;-61
2022/08/01 06:26:38;;;;;;;6.60;5.10;;;20.40;99.90;;;;;;5040304;28;20028;-62
2022/08/01 06:29:03;;;;;;;5.95;5.28;;;20.40;99.90;;;;;;5053447;28;20053;-61
2022/08/01 06:31:31;;;;;;;7.10;5.63;;;20.50;99.90;;;;;;5051250;28;20528;-62
2022/08/01 06:33:57;;;;;;;5.88;5.20;;;20.50;99.90;;;;;;5040828;28;20234;-62
2022/08/01 06:36:22;;;;;;;6.53;5.85;;;20.50;99.90;;;;;;5044063;28;20021;-62
2022/08/01 06:38:48;;;;;;;7.03;5.18;;;20.60;99.90;;;;;;5051663;28;20070;-62
2022/08/01 06:41:13;;;;;;;5.00;4.50;;;20.60;99.90;;;;;;5049236;28;20036;-62
2022/08/01 06:43:39;;;;;;;6.68;4.97;;;20.60;99.90;;;;;;5048339;28;20473;-61
2022/08/01 06:46:04;;;;;;;4.38;3.85;;;20.60;99.90;;;;;;5047898;28;20033;-62
2022/08/01 06:48:30;;;;;;;6.47;4.38;;;20.60;99.90;;;;;;5041881;28;20029;-62
2022/08/01 06:51:07;;;;;;;4.05;3.17;;;20.60;99.90;;;;;;5047340;28;20380;-61
2022/08/01 06:53:34;;;;;;;2.50;2.20;;;20.60;99.90;;;;;;5048238;28;20108;-61
2022/08/01 06:56:00;;;;;;;2.00;1.77;;;20.60;99.90;;;;;;5044824;28;20232;-61
2022/08/01 06:58:26;;;;;;;3.08;1.67;;;20.60;99.90;;;;;;5044761;28;20493;-61
2022/08/01 07:00:51;;;;;;;1.73;1.27;;;20.60;99.90;;;;;;5048834;28;20166;-61
2022/08/01 07:03:17;;;;;;;1.25;1.05;;;20.60;99.90;;;;;;5051984;28;20053;-61
2022/08/01 07:05:45;;;;;;;1.20;0.80;;;20.70;99.90;;;;;;5039876;28;20030;-61
2022/08/01 07:08:10;;;;;;;1.20;0.80;;;20.70;99.90;;;;;;5053202;28;20075;-62
2022/08/01 07:10:36;;;;;;;1.00;0.77;;;20.70;99.90;;;;;;5052195;28;20039;-61
2022/08/01 07:13:01;;;;;;;0.93;0.60;;;20.70;99.90;;;;;;5053110;28;20037;-62
2022/08/01 07:15:27;;;;;;;1.00;0.70;;;20.70;99.90;;;;;;5047389;28;20493;-61
2022/08/01 07:17:53;;;;;;;1.27;0.60;;;20.80;99.90;;;;;;5046236;28;20029;-62
2022/08/01 07:20:18;;;;;;;0.80;0.68;;;20.80;99.90;;;;;;5042088;28;20511;-62
2022/08/01 07:22:44;;;;;;;1.10;0.60;;;20.90;99.80;;;;;;5034264;28;20038;-61
2022/08/01 07:25:10;;;;;;;0.70;0.57;;;20.90;99.50;;;;;;5046653;28;20100;-61
2022/08/01 07:27:36;;;;;;;1.38;0.52;;;21.00;99.30;;;;;;5033105;28;20492;-61
2022/08/01 07:30:02;;;;;;;1.45;0.73;;;21.00;98.90;;;;;;5034331;28;20107;-61
2022/08/01 07:32:29;;;;;;;0.70;0.50;;;21.10;98.60;;;;;;5042902;28;20427;-61
2022/08/01 07:34:55;;;;;;;0.60;0.40;;;21.20;98.40;;;;;;5051163;28;20025;-61
2022/08/01 07:37:20;;;;;;;0.60;0.50;;;21.30;98.30;;;;;;5043590;28;20029;-61
2022/08/01 07:39:46;;;;;;;0.50;0.40;;;21.40;98.10;;;;;;5044120;28;20052;-62
2022/08/01 07:42:11;;;;;;;1.55;0.50;;;21.40;97.90;;;;;;5038836;28;20021;-61
2022/08/01 07:44:37;;;;;;;0.68;0.40;;;21.50;97.70;;;;;;5045644;28;20477;-62
2022/08/01 07:47:03;;;;;;;0.50;0.40;;;21.50;97.50;;;;;;5038621;28;20127;-62
2022/08/01 07:49:29;;;;;;;0.93;0.50;;;21.50;97.30;;;;;;5045652;28;20381;-62
2022/08/01 07:51:54;;;;;;;0.55;0.50;;;21.60;97.10;;;;;;5043815;28;20021;-61
2022/08/01 07:54:20;;;;;;;0.73;0.50;;;21.70;97.00;;;;;;5034545;28;20017;-61
2022/08/01 07:56:45;;;;;;;0.68;0.40;;;21.70;96.80;;;;;;5043898;28;20380;-61
2022/08/01 07:59:11;;;;;;;0.90;0.40;;;21.80;96.80;;;;;;5043332;28;20529;-61
2022/08/01 08:01:36;;;;;;;0.82;0.40;;;21.90;96.80;;;;;;5039697;28;20037;-62
2022/08/01 08:04:02;;;;;;;0.85;0.40;;;22.00;96.60;;;;;;5040002;28;20508;-61
2022/08/01 08:06:28;;;;;;;1.02;0.52;;;22.10;96.50;;;;;;5044724;28;20100;-62
2022/08/01 08:08:53;;;;;;;1.17;0.60;;;22.20;96.30;;;;;;5043281;28;20022;-62
2022/08/01 08:11:19;;;;;;;1.65;0.50;;;22.20;96.00;;;;;;5037151;28;20025;-62
2022/08/01 08:13:44;;;;;;;0.35;0.30;;;22.30;95.90;;;;;;5045088;28;20056;-62
2022/08/01 08:16:10;;;;;;;1.25;0.40;;;22.30;95.70;;;;;;5031995;28;20499;-61
2022/08/01 08:18:37;;;;;;;1.75;0.40;;;22.40;95.60;;;;;;5039720;28;20039;-62
2022/08/01 08:21:03;;;;;;;0.68;0.40;;;22.50;95.50;;;;;;5044649;28;20018;-62
2022/08/01 08:26:12;;;;;;;0.38;0.38;;;22.50;95.20;;;;;;5042734;28;20076;-62
2022/08/01 08:28:38;;;;;;;0.90;0.40;;;22.60;95.30;;;;;;5051578;28;20481;-61
2022/08/01 08:31:03;;;;;;;0.60;0.40;;;22.60;95.20;;;;;;5051746;28;20053;-62
2022/08/01 08:33:29;;;;;;;0.73;0.40;;;22.80;95.00;;;;;;5051030;28;20074;-62
2022/08/01 08:35:55;;;;;;;1.30;0.63;;;22.90;94.80;;;;;;5054664;28;20025;-62
2022/08/01 08:38:20;;;;;;;0.60;0.40;;;23.10;94.60;;;;;;5053394;28;20111;-62
2022/08/01 08:40:46;;;;;;;0.60;0.43;;;23.20;94.40;;;;;;5045884;28;20134;-62
2022/08/01 08:43:11;;;;;;;0.90;0.40;;;23.30;94.20;;;;;;5053444;28;20013;-62
2022/08/01 08:47:03;;;;;;;;;;;;;;;;;;;;;
2022/08/01 08:48:47;;;;;;;0.85;0.50;;;23.40;93.80;;;;;;5012979;28;20037;-62
2022/08/01 08:51:14;;;;;;;1.13;0.40;;;23.40;93.70;;;;;;5036337;28;20021;-62
2022/08/01 08:53:43;;;;;;;0.55;0.38;;;23.40;93.60;;;;;;5035104;28;20033;-61
2022/08/01 08:56:11;;;;;;;0.70;0.40;;;23.40;93.50;;;;;;5036026;28;20076;-62
2022/08/01 08:58:38;;;;;;;0.38;0.30;;;23.40;93.40;;;;;;5035786;28;20450;-61
2022/08/01 09:01:08;;;;;;;1.10;0.73;;;23.50;93.40;;;;;;5036169;28;20017;-61
2022/08/01 09:03:34;;;;;;;0.70;0.40;;;23.60;93.10;;;;;;5035507;28;20041;-62
2022/08/01 09:06:00;;;;;;;0.93;0.40;;;23.70;93.10;;;;;;5036134;28;20025;-62
2022/08/01 09:08:25;;;;;;;0.52;0.40;;;23.80;92.90;;;;;;5040652;28;20041;-61
2022/08/01 09:10:51;;;;;;;1.20;0.77;;;23.80;92.60;;;;;;5037335;28;20474;-62
2022/08/01 09:13:19;;;;;;;0.68;0.43;;;23.80;92.10;;;;;;5048630;28;20030;-62
2022/08/01 09:15:57;;;;;;;1.58;0.50;;;23.80;91.60;;;;;;5047166;28;20115;-62
2022/08/01 09:18:27;;;;;;;0.90;0.50;;;23.80;91.60;;;;;;5033678;28;20026;-62
2022/08/01 09:21:10;;;;;;;0.90;0.52;;;23.80;91.50;;;;;;5048943;28;20113;-62
2022/08/01 09:23:39;;;;;;;1.58;0.55;;;23.80;91.50;;;;;;5050016;28;20021;-62
2022/08/01 09:26:06;;;;;;;0.80;0.47;;;23.90;91.70;;;;;;5055391;28;20047;-61
2022/08/01 09:28:32;;;;;;;0.75;0.57;;;24.00;91.60;;;;;;5024297;28;20025;-62
2022/08/01 09:30:58;;;;;;;1.60;0.90;;;24.10;91.60;;;;;;5037024;28;20116;-62
2022/08/01 09:33:24;;;;;;;0.70;0.40;;;24.30;91.50;;;;;;5052763;28;20022;-62
2022/08/01 09:35:57;;;;;;;1.13;0.40;;;24.40;91.40;;;;;;5053512;28;20070;-62
2022/08/01 09:38:26;;;;;;;1.85;0.52;;;24.40;90.80;;;;;;5046752;28;20055;-62
2022/08/01 09:40:53;;;;;;;;;;;24.30;90.50;;;;;;5051891;28;20048;-62
2022/08/01 09:43:21;;;;;;;0.47;0.40;;;24.20;90.70;;;;;;5044017;28;20432;-62
2022/08/01 09:45:47;;;;;;;1.25;0.47;;;24.20;91.10;;;;;;5041944;28;20028;-62
2022/08/01 09:48:32;;;;;;;0.73;0.32;;;24.20;90.60;;;;;;5042082;28;20025;-62
2022/08/01 09:50:59;;;;;;;0.60;0.40;;;24.30;90.50;;;;;;5041574;28;20072;-62
2022/08/01 09:53:24;;;;;;;1.55;0.50;;;24.30;89.90;;;;;;5044773;28;20024;-62
2022/08/01 09:55:52;;;;;;;0.88;0.60;;;24.30;89.00;;;;;;5045790;28;20052;-62
2022/08/01 09:58:19;;;;;;;2.03;0.50;;;24.30;87.70;;;;;;5042556;28;20249;-62
2022/08/01 10:01:02;;;;;;;1.27;0.52;;;24.30;88.20;;;;;;5039517;28;20512;-62
2022/08/01 10:03:29;;;;;;;1.15;0.60;;;24.20;88.50;;;;;;5039134;28;20049;-62
2022/08/01 10:05:56;;;;;;;0.85;0.40;;;24.20;89.10;;;;;;5040700;28;20032;-62
2022/08/01 10:08:24;;;;;;;0.50;0.30;;;24.30;89.50;;;;;;5042158;28;20480;-62
2022/08/01 10:14:08;;;;;;;0.82;0.38;;;24.50;87.60;;;;;;5025559;28;20402;-62
2022/08/01 10:16:36;;;;;;;0.77;0.40;;;24.50;88.10;;;;;;5037631;28;20014;-62
2022/08/01 10:19:06;;;;;;;1.95;0.68;;;24.50;87.50;;;;;;5029616;28;20095;-62
2022/08/01 10:21:33;;;;;;;2.17;1.02;;;24.40;87.70;;;;;;5042336;28;20018;-62
2022/08/01 10:24:02;;;;;;;0.60;0.40;;;24.40;88.30;;;;;;5038057;28;20469;-62
2022/08/01 10:26:31;;;;;;;1.00;0.40;;;24.20;89.50;;;;;;5038877;28;20032;-62
2022/08/01 10:28:57;;;;;;;0.98;0.40;;;24.20;89.60;;;;;;5044061;28;20018;-62
2022/08/01 10:31:23;;;;;;;1.25;0.50;;;23.90;89.70;;;;;;5041088;28;20021;-62
2022/08/01 10:33:50;;;;;;;2.47;0.85;;;23.70;90.00;;;;;;5040589;28;20485;-62
2022/08/01 10:36:19;;;;;;;1.38;0.50;;;23.50;90.30;;;;;;5029064;28;20052;-62
2022/08/01 10:38:45;;;;;;;2.15;0.70;;;23.40;90.50;;;;;;5047548;28;20025;-62
2022/08/01 10:41:15;;;;;;;1.10;0.60;;;23.40;90.70;;;;;;5051085;28;20507;-62
2022/08/01 10:43:42;;;;;;;1.95;0.75;;;23.40;90.60;;;;;;5049914;28;20056;-62
2022/08/01 10:46:08;;;;;;;2.13;1.00;;;23.40;90.50;;;;;;5049937;28;20051;-62
2022/08/01 10:48:49;;;;;;;3.15;0.88;;;23.50;90.50;;;;;;5046227;28;20025;-62
2022/08/01 10:51:16;;;;;;;1.40;0.68;;;23.60;90.30;;;;;;5042241;28;20415;-62
2022/08/01 10:53:51;;;;;;;2.30;0.70;;;23.80;90.20;;;;;;5043051;28;20347;-61
2022/08/01 10:56:17;;;;;;;3.25;0.90;;;24.00;89.90;;;;;;5039861;28;20021;-62
2022/08/01 10:58:44;;;;;;;1.30;0.60;;;24.20;89.30;;;;;;5038166;28;20025;-62
2022/08/01 11:01:23;;;;;;;1.90;0.98;;;24.30;88.80;;;;;;5044619;28;20021;-62
2022/08/01 11:04:02;;;;;;;3.17;1.10;;;24.60;88.70;;;;;;5040065;28;20106;-63
2022/08/01 11:06:33;;;;;;;3.30;1.20;;;24.80;88.00;;;;;;5042930;28;20056;-62
2022/08/01 11:09:02;;;;;;;2.38;0.98;;;24.90;87.30;;;;;;5041317;28;20018;-62
2022/08/01 11:11:28;;;;;;;4.05;1.30;;;25.00;86.70;;;;;;5041638;28;20052;-62
2022/08/01 11:14:12;;;;;;;1.92;0.85;;;25.00;86.10;;;;;;5037475;28;20025;-62
2022/08/01 11:16:40;;;;;;;2.88;1.17;;;25.10;85.70;;;;;;5042247;28;20018;-62
2022/08/01 11:19:08;;;;;;;2.72;1.33;;;25.10;85.30;;;;;;5040946;28;20115;-62
2022/08/01 11:22:02;;;;;;;1.38;0.60;;;25.30;85.00;;;;;;5033863;28;20501;-62
2022/08/01 11:24:46;;;;;;;2.05;0.90;;;25.40;84.60;;;;;;5042246;28;20056;-62
2022/08/01 11:27:21;;;;;;;1.60;0.82;;;25.40;84.00;;;;;;5043835;28;20018;-62
2022/08/01 11:30:19;;;;;;;1.85;0.77;;;25.40;84.00;;;;;;5036159;28;20528;-62
2022/08/01 11:32:49;;;;;;;1.80;0.93;;;25.40;83.90;;;;;;4982821;28;20046;-62
2022/08/01 11:35:15;;;;;;;1.33;0.70;;;25.40;84.40;;;;;;5038400;28;20364;-62
2022/08/01 11:37:40;;;;;;;2.70;0.90;;;25.30;84.50;;;;;;5037264;28;20107;-62
2022/08/01 11:40:22;;;;;;;3.13;1.00;;;25.40;84.20;;;;;;5040741;28;20035;-62
2022/08/01 11:42:49;;;;;;;4.20;1.27;;;25.20;83.80;;;;;;5037174;28;20032;-62
2022/08/01 11:45:15;;;;;;;1.92;0.70;;;25.10;83.70;;;;;;5036780;28;20024;-62
2022/08/01 11:47:51;;;;;;;2.08;0.90;;;25.00;83.70;;;;;;5036101;28;20021;-63
2022/08/01 11:50:29;;;;;;;3.10;0.80;;;24.90;83.50;;;;;;5037629;28;20020;-62
2022/08/01 11:52:59;;;;;;;4.25;1.02;;;24.90;83.80;;;;;;5031261;28;20075;-62
2022/08/01 11:55:28;;;;;;;1.58;0.70;;;24.80;84.10;;;;;;5028528;28;20025;-62
2022/08/01 11:58:07;;;;;;;1.35;0.73;;;24.70;84.30;;;;;;5037939;28;20029;-62
2022/08/01 12:00:33;;;;;;;2.28;0.70;;;24.70;84.10;;;;;;5036662;28;20039;-63
2022/08/01 12:03:02;;;;;;;1.80;0.93;;;24.70;84.40;;;;;;5019142;28;20081;-64
2022/08/01 12:05:29;;;;;;;2.00;1.30;;;24.70;84.50;;;;;;5041231;28;20021;-62
2022/08/01 12:07:55;;;;;;;2.28;0.80;;;24.70;84.70;;;;;;5039017;28;20033;-62
2022/08/01 12:10:24;;;;;;;2.13;0.73;;;24.70;84.70;;;;;;5041334;28;20016;-63
2022/08/01 12:12:52;;;;;;;2.23;1.00;;;24.70;84.80;;;;;;5043554;28;20025;-62
2022/08/01 12:15:30;;;;;;;4.60;1.30;;;24.60;84.70;;;;;;5045085;28;20258;-62
2022/08/01 12:18:01;;;;;;;2.60;0.73;;;24.60;84.60;;;;;;5052266;28;20447;-62
2022/08/01 12:20:29;;;;;;;2.78;0.88;;;24.50;84.20;;;;;;5024501;28;20021;-62
2022/08/01 12:22:57;;;;;;;2.13;0.80;;;24.50;84.20;;;;;;5031913;28;20013;-62
2022/08/01 12:25:23;;;;;;;1.80;0.90;;;24.50;84.00;;;;;;5035443;28;20023;-62
2022/08/01 12:27:49;;;;;;;4.28;0.70;;;24.50;83.80;;;;;;5042227;28;20104;-62
2022/08/01 12:30:18;;;;;;;3.65;0.93;;;24.60;83.50;;;;;;5036045;28;20017;-62
2022/08/01 12:32:47;;;;;;;;;;;24.70;83.10;;;;;;5042406;28;20477;-62
2022/08/01 12:35:20;;;;;;;4.50;0.70;;;24.80;83.20;;;;;;5033033;28;19905;-62
2022/08/01 12:37:47;;;;;;;2.45;0.77;;;25.10;82.50;;;;;;5032851;28;20087;-62
2022/08/01 12:40:19;;;;;;;3.60;1.15;;;25.40;81.60;;;;;;5032834;28;20022;-62
2022/08/01 12:42:46;;;;;;;5.80;0.90;;;25.80;80.60;;;;;;5031899;28;20167;-62
2022/08/01 12:45:33;;;;;;;1.90;0.70;;;26.20;79.60;;;;;;5032448;28;20385;-62
2022/08/01 12:48:00;;;;;;;2.30;0.70;;;26.50;78.70;;;;;;5017325;28;20116;-63
2022/08/01 12:50:29;;;;;;;2.47;0.80;;;26.70;78.00;;;;;;5051770;28;20025;-62
2022/08/01 12:52:55;;;;;;;2.88;0.80;;;26.90;76.30;;;;;;5037561;28;20018;-62
2022/08/01 12:55:24;;;;;;;2.20;0.77;;;27.20;75.70;;;;;;5044264;28;20487;-62
2022/08/01 12:58:10;;;;;;;2.80;1.00;;;27.40;74.40;;;;;;5043302;28;20029;-64
2022/08/01 13:00:38;;;;;;;2.28;0.80;;;27.70;73.90;;;;;;5044729;28;20036;-62
2022/08/01 13:03:09;;;;;;;2.53;0.68;;;27.70;72.10;;;;;;5043475;28;20068;-62
2022/08/01 13:05:46;;;;;;;3.90;0.80;;;27.70;71.70;;;;;;5044122;28;20032;-62